Time;durP1;ratioP1;P1;durP2;ratioP2;P2;SDS_P1;SDS_P2;PMS_P1;PMS_P2;Temp;Humidity;BMP_temperature;BMP_pressure;BME280_temperature;BME280_humidity;BME280_pressure;Samples;Min_cycle;Max_cycle;Signal;HPM_P1;HPM_P2
2023/04/20 00:01:54;;;;;;;7.37;4.23;;;;;;;8.89;71.89;99222.09;5089180;28;20188;-78
2023/04/20 00:04:22;;;;;;;6.83;4.00;;;;;;;8.99;72.14;99214.50;5042485;28;20262;-79
2023/04/20 00:06:52;;;;;;;8.30;4.50;;;;;;;9.10;71.45;99224.47;5093336;28;20244;-78
2023/04/20 00:09:21;;;;;;;9.37;4.60;;;;;;;8.77;75.49;99219.28;5091961;28;20219;-78
2023/04/20 00:11:49;;;;;;;11.30;4.60;;;;;;;8.66;76.89;99219.00;5087840;28;20188;-78
2023/04/20 00:14:18;;;;;;;14.07;4.90;;;;;;;8.67;77.99;99210.16;5096166;28;20655;-78
2023/04/20 00:16:46;;;;;;;9.77;4.23;;;;;;;8.56;79.15;99198.41;5087866;28;20199;-78
2023/04/20 00:19:15;;;;;;;9.63;4.33;;;;;;;8.82;77.86;99196.09;5096098;28;20226;-78
2023/04/20 00:21:44;;;;;;;5.77;4.00;;;;;;;8.86;76.15;99192.34;5093149;28;20274;-78
2023/04/20 00:24:12;;;;;;;9.33;4.30;;;;;;;8.99;75.36;99185.44;5092774;28;20675;-78
2023/04/20 00:26:41;;;;;;;9.77;4.30;;;;;;;9.02;73.10;99181.78;5091718;28;20195;-78
2023/04/20 00:29:10;;;;;;;6.30;4.20;;;;;;;8.94;72.76;99189.28;5091105;28;20195;-78
2023/04/20 00:31:39;;;;;;;5.43;4.00;;;;;;;8.58;75.42;99182.47;5092733;28;20252;-78
2023/04/20 00:34:07;;;;;;;5.97;3.90;;;;;;;8.31;80.94;99183.03;5044420;28;20191;-78
2023/04/20 00:36:35;;;;;;;8.60;4.40;;;;;;;8.24;87.35;99184.28;5086379;28;20208;-78
2023/04/20 00:39:04;;;;;;;7.53;4.30;;;;;;;8.06;94.26;99187.91;5060664;28;20226;-78
2023/04/20 00:41:32;;;;;;;8.17;4.20;;;;;;;7.86;100.00;99186.34;5094597;28;20196;-78
2023/04/20 00:44:02;;;;;;;6.87;4.50;;;;;;;7.83;100.00;99183.88;5088172;28;20261;-78
2023/04/20 00:46:30;;;;;;;6.47;4.30;;;;;;;7.74;100.00;99177.28;5095546;28;20715;-78
2023/04/20 00:48:59;;;;;;;5.60;3.90;;;;;;;7.79;100.00;99178.81;5095355;28;20676;-78
2023/04/20 00:51:28;;;;;;;7.50;4.27;;;;;;;7.78;100.00;99177.13;5095627;28;20196;-78
2023/04/20 00:53:56;;;;;;;6.30;4.30;;;;;;;7.62;100.00;99177.91;5091103;28;20315;-78
2023/04/20 00:56:26;;;;;;;10.50;4.33;;;;;;;7.52;100.00;99187.22;5089387;28;20344;-78
2023/04/20 00:58:54;;;;;;;8.40;4.60;;;;;;;7.51;100.00;99188.16;5089283;28;20199;-78
2023/04/20 01:01:24;;;;;;;6.40;4.60;;;;;;;7.52;100.00;99171.41;5091642;28;20204;-78
2023/04/20 01:03:53;;;;;;;6.47;4.30;;;;;;;7.25;100.00;99176.31;5094847;28;20269;-78
2023/04/20 01:06:22;;;;;;;6.43;4.37;;;;;;;7.47;100.00;99181.34;5090476;28;20247;-77
2023/04/20 01:08:51;;;;;;;5.87;4.73;;;;;;;7.39;100.00;99173.81;5087306;28;20257;-78
2023/04/20 01:11:20;;;;;;;7.53;5.00;;;;;;;7.13;100.00;99166.38;5081358;28;20199;-78
2023/04/20 01:13:48;;;;;;;7.87;4.87;;;;;;;7.10;100.00;99169.16;5090175;28;20195;-78
2023/04/20 01:16:16;;;;;;;7.47;4.93;;;;;;;7.21;100.00;99169.47;5081701;28;20225;-78
2023/04/20 01:18:48;;;;;;;5.17;4.57;;;;;;;7.14;100.00;99160.16;5087474;28;20183;-78
2023/04/20 01:21:18;;;;;;;8.97;4.90;;;;;;;7.44;100.00;99150.75;5091993;28;20191;-77
2023/04/20 01:23:48;;;;;;;7.93;5.17;;;;;;;7.55;100.00;99158.09;5094921;28;20200;-78
2023/04/20 01:26:19;;;;;;;7.30;4.77;;;;;;;7.64;100.00;99154.13;5090844;28;20226;-78
2023/04/20 01:28:48;;;;;;;7.83;5.27;;;;;;;7.38;100.00;99153.69;5094688;28;20260;-78
2023/04/20 01:31:16;;;;;;;5.10;4.60;;;;;;;7.21;100.00;99143.13;5083906;28;20195;-77
2023/04/20 01:33:45;;;;;;;6.57;4.40;;;;;;;6.95;100.00;99144.47;5087888;28;20203;-78
2023/04/20 01:36:13;;;;;;;6.83;4.57;;;;;;;6.85;100.00;99146.69;5088718;28;20674;-77
2023/04/20 01:38:41;;;;;;;6.43;5.07;;;;;;;6.56;100.00;99148.09;5088003;28;20200;-78
2023/04/20 01:41:11;;;;;;;6.80;4.70;;;;;;;6.52;100.00;99149.16;5087614;28;20218;-77
2023/04/20 01:43:40;;;;;;;6.10;5.13;;;;;;;6.82;100.00;99138.94;5094442;28;20194;-77
2023/04/20 01:46:08;;;;;;;7.07;5.30;;;;;;;6.58;100.00;99145.41;5088186;28;20234;-77
2023/04/20 01:48:37;;;;;;;7.10;4.90;;;;;;;6.46;100.00;99140.69;5089245;28;20270;-77
2023/04/20 01:51:07;;;;;;;7.63;5.60;;;;;;;6.57;100.00;99147.19;5086585;28;20219;-77
2023/04/20 01:53:35;;;;;;;6.50;5.20;;;;;;;6.59;100.00;99134.78;5091568;28;20188;-77
2023/04/20 01:56:03;;;;;;;8.63;5.53;;;;;;;6.76;100.00;99133.13;5092979;28;20191;-77
2023/04/20 01:58:33;;;;;;;6.70;4.97;;;;;;;6.92;100.00;99125.31;5089331;28;20219;-78
2023/04/20 02:01:02;;;;;;;7.80;5.20;;;;;;;6.98;100.00;99128.50;5086526;28;20211;-77
2023/04/20 02:03:30;;;;;;;9.40;5.37;;;;;;;6.94;100.00;99124.28;5093567;28;20195;-77
2023/04/20 02:05:58;;;;;;;6.50;5.10;;;;;;;6.93;100.00;99122.59;5089439;28;20262;-77
2023/04/20 02:08:27;;;;;;;9.13;5.37;;;;;;;6.61;100.00;99124.19;5086511;28;20634;-76
2023/04/20 02:10:55;;;;;;;8.03;5.73;;;;;;;6.69;100.00;99124.66;5089731;28;20188;-76
2023/04/20 02:13:25;;;;;;;6.83;6.00;;;;;;;6.68;100.00;99136.13;5088438;28;20203;-77
2023/04/20 02:15:55;;;;;;;9.30;5.67;;;;;;;6.53;100.00;99124.56;5091315;28;20198;-77
2023/04/20 02:18:24;;;;;;;9.73;6.23;;;;;;;6.66;100.00;99129.22;5081178;28;20202;-77
2023/04/20 02:20:53;;;;;;;8.30;6.50;;;;;;;6.32;100.00;99122.94;5090539;28;20203;-77
2023/04/20 02:23:21;;;;;;;8.03;6.30;;;;;;;6.56;100.00;99131.44;5093607;28;20195;-77
2023/04/20 02:25:49;;;;;;;8.77;6.00;;;;;;;6.67;100.00;99121.28;5092421;28;20219;-77
2023/04/20 02:28:18;;;;;;;8.63;6.57;;;;;;;6.68;100.00;99122.13;5093544;28;20203;-77
2023/04/20 02:30:46;;;;;;;8.47;6.57;;;;;;;6.87;100.00;99113.25;5090561;28;20249;-77
2023/04/20 02:33:16;;;;;;;8.73;6.33;;;;;;;6.87;100.00;99112.41;5088709;28;20195;-78
2023/04/20 02:35:44;;;;;;;7.47;6.07;;;;;;;6.74;100.00;99113.91;5093525;28;20249;-77
2023/04/20 02:38:12;;;;;;;7.03;6.00;;;;;;;6.80;100.00;99108.34;5093434;28;20196;-78
2023/04/20 02:40:40;;;;;;;10.13;6.43;;;;;;;6.79;100.00;99106.66;5091994;28;20690;-77
2023/04/20 02:43:09;;;;;;;8.10;6.30;;;;;;;6.75;100.00;99105.94;5093472;28;20230;-77
2023/04/20 02:45:37;;;;;;;8.13;6.80;;;;;;;6.85;100.00;99107.22;5087563;28;20222;-77
2023/04/20 02:48:06;;;;;;;7.63;6.23;;;;;;;6.63;100.00;99109.16;5093230;28;20245;-77
2023/04/20 02:50:37;;;;;;;8.90;6.80;;;;;;;6.85;100.00;99101.94;5093332;28;20191;-77
2023/04/20 02:53:05;;;;;;;7.00;6.30;;;;;;;6.99;100.00;99100.38;5093037;28;20230;-77
2023/04/20 02:55:33;;;;;;;10.33;7.17;;;;;;;7.02;100.00;99101.06;5084428;28;20261;-77
2023/04/20 02:58:03;;;;;;;9.87;7.17;;;;;;;6.94;100.00;99095.34;5093031;28;20192;-77
2023/04/20 03:00:31;;;;;;;7.20;6.40;;;;;;;6.72;100.00;99085.03;5093037;28;20200;-77
2023/04/20 03:02:59;;;;;;;12.17;6.57;;;;;;;6.70;100.00;99088.69;5092910;28;20199;-77
2023/04/20 03:05:28;;;;;;;8.87;6.40;;;;;;;6.82;100.00;99077.53;5069312;28;20239;-77
2023/04/20 03:07:58;;;;;;;8.93;7.03;;;;;;;7.01;100.00;99080.09;5066175;28;20197;-77
2023/04/20 03:10:26;;;;;;;9.57;6.67;;;;;;;6.92;100.00;99086.66;5069679;28;20204;-77
2023/04/20 03:12:54;;;;;;;9.70;6.90;;;;;;;6.91;100.00;99070.97;5067847;28;20250;-76
2023/04/20 03:15:22;;;;;;;8.60;6.73;;;;;;;6.69;100.00;99081.72;5072618;28;20250;-77
2023/04/20 03:17:51;;;;;;;8.30;6.53;;;;;;;6.77;100.00;99080.41;5072586;28;20547;-77
2023/04/20 03:20:20;;;;;;;8.30;7.00;;;;;;;6.76;100.00;99083.13;5072613;28;20203;-77
2023/04/20 03:22:48;;;;;;;8.63;6.43;;;;;;;6.65;100.00;99077.50;5072730;28;20711;-77
2023/04/20 03:25:18;;;;;;;7.03;6.33;;;;;;;6.56;100.00;99073.56;5078748;28;20203;-77
2023/04/20 03:27:46;;;;;;;8.67;6.53;;;;;;;6.49;100.00;99080.06;5074485;28;20228;-77
2023/04/20 03:30:15;;;;;;;8.17;6.30;;;;;;;6.42;100.00;99073.38;5073637;28;20225;-77
2023/04/20 03:32:44;;;;;;;6.83;6.07;;;;;;;6.57;100.00;99072.66;5079252;28;20243;-78
2023/04/20 03:35:12;;;;;;;7.03;6.20;;;;;;;6.42;100.00;99078.66;5076335;28;20192;-78
2023/04/20 03:37:40;;;;;;;8.20;6.23;;;;;;;6.41;100.00;99074.31;5076541;28;20207;-77
2023/04/20 03:40:10;;;;;;;7.23;6.53;;;;;;;6.41;100.00;99072.53;5078868;28;20650;-77
2023/04/20 03:42:39;;;;;;;7.10;5.93;;;;;;;6.49;100.00;99070.38;5065957;28;20651;-77
2023/04/20 03:45:09;;;;;;;7.97;6.77;;;;;;;6.25;100.00;99068.94;5073576;28;20241;-77
2023/04/20 03:47:37;;;;;;;8.33;6.57;;;;;;;6.32;100.00;99055.41;5079164;28;20250;-77
2023/04/20 03:50:07;;;;;;;7.17;6.23;;;;;;;6.31;100.00;99060.75;5076564;28;20237;-77
2023/04/20 03:52:36;;;;;;;8.33;6.70;;;;;;;6.37;100.00;99068.34;5076130;28;20726;-77
2023/04/20 03:55:04;;;;;;;8.07;6.40;;;;;;;6.44;100.00;99063.63;5075314;28;20666;-77
2023/04/20 03:57:33;;;;;;;7.27;6.17;;;;;;;6.31;100.00;99052.88;5073662;28;20200;-77
2023/04/20 04:00:04;;;;;;;7.80;7.00;;;;;;;6.51;100.00;99052.75;5074804;28;20250;-77
2023/04/20 04:02:33;;;;;;;8.00;5.97;;;;;;;6.59;100.00;99055.84;5078871;28;20199;-77
2023/04/20 04:05:05;;;;;;;7.80;7.00;;;;;;;6.74;100.00;99056.00;5093414;28;20235;-77
2023/04/20 04:07:34;;;;;;;7.60;6.80;;;;;;;6.73;100.00;99057.78;5099173;28;20223;-77
2023/04/20 04:10:03;;;;;;;8.17;7.00;;;;;;;6.72;100.00;99058.72;5099189;28;20662;-77
2023/04/20 04:12:31;;;;;;;7.70;6.90;;;;;;;6.69;100.00;99056.25;5097707;28;20202;-77
2023/04/20 04:15:01;;;;;;;7.43;6.67;;;;;;;6.68;100.00;99048.44;5092419;28;20202;-77
2023/04/20 04:17:30;;;;;;;8.07;6.80;;;;;;;6.80;100.00;99055.72;5095005;28;20203;-77
2023/04/20 04:19:58;;;;;;;9.30;6.40;;;;;;;6.89;100.00;99053.47;5098952;28;20278;-77
2023/04/20 04:22:27;;;;;;;7.63;6.43;;;;;;;6.99;100.00;99058.25;5099000;28;20217;-78
2023/04/20 04:24:57;;;;;;;7.50;6.60;;;;;;;6.91;100.00;99052.53;5096282;28;20249;-77
2023/04/20 04:27:28;;;;;;;7.97;6.13;;;;;;;6.94;100.00;99057.63;5093781;28;20219;-77
2023/04/20 04:29:57;;;;;;;9.10;6.27;;;;;;;7.10;100.00;99059.41;5094667;28;20200;-78
2023/04/20 04:32:25;;;;;;;7.43;6.23;;;;;;;7.03;100.00;99052.75;5091633;28;20188;-78
2023/04/20 04:34:56;;;;;;;7.53;6.13;;;;;;;6.97;100.00;99055.72;5088547;28;20283;-77
2023/04/20 04:37:24;;;;;;;6.97;6.00;;;;;;;6.86;100.00;99042.25;5084475;28;20244;-78
2023/04/20 04:39:53;;;;;;;7.07;6.03;;;;;;;6.87;100.00;99051.84;5095688;28;20192;-77
2023/04/20 04:42:23;;;;;;;6.53;5.70;;;;;;;6.92;100.00;99044.53;5089471;28;20192;-77
2023/04/20 04:44:52;;;;;;;8.70;5.70;;;;;;;6.95;100.00;99046.16;5038354;28;20196;-77
2023/04/20 04:47:20;;;;;;;6.73;6.00;;;;;;;6.95;100.00;99041.78;5086407;28;20694;-77
2023/04/20 04:49:49;;;;;;;7.50;5.87;;;;;;;6.80;100.00;99039.91;5091346;28;20261;-78
2023/04/20 04:52:20;;;;;;;6.27;5.67;;;;;;;7.00;100.00;99041.53;5089841;28;20188;-78
2023/04/20 04:54:49;;;;;;;6.37;5.27;;;;;;;6.92;100.00;99041.91;5089088;28;20188;-78
2023/04/20 04:57:17;;;;;;;7.07;6.07;;;;;;;6.59;100.00;99042.69;5093944;28;20276;-77
2023/04/20 04:59:45;;;;;;;6.40;5.23;;;;;;;6.89;100.00;99044.72;5095256;28;20195;-78
2023/04/20 05:02:14;;;;;;;6.90;5.73;;;;;;;6.82;100.00;99040.69;5095086;28;20241;-78
2023/04/20 05:04:42;;;;;;;6.03;5.40;;;;;;;6.88;100.00;99043.88;5095081;28;20253;-77
2023/04/20 05:07:11;;;;;;;6.03;5.40;;;;;;;6.84;100.00;99044.94;5085684;28;20227;-78
2023/04/20 05:09:41;;;;;;;6.53;5.67;;;;;;;6.93;100.00;99048.03;5092151;28;20207;-77
2023/04/20 05:12:09;;;;;;;8.37;6.40;;;;;;;6.81;100.00;99037.19;5085513;28;20196;-77
2023/04/20 05:14:37;;;;;;;7.87;5.47;;;;;;;6.84;100.00;99042.28;5087546;28;20216;-77
2023/04/20 05:17:05;;;;;;;9.67;6.37;;;;;;;6.88;100.00;99046.50;5092008;28;20659;-77
2023/04/20 05:19:34;;;;;;;10.37;7.90;;;;;;;6.85;100.00;99048.41;5090689;28;20200;-78
2023/04/20 05:22:02;;;;;;;21.27;15.13;;;;;;;6.53;100.00;99040.34;5090698;28;20252;-78
2023/04/20 05:24:30;;;;;;;9.27;7.03;;;;;;;6.48;100.00;99047.63;5091697;28;20195;-77
2023/04/20 05:27:00;;;;;;;7.67;6.70;;;;;;;6.70;100.00;99047.41;5088987;28;20223;-77
2023/04/20 05:29:28;;;;;;;10.57;7.93;;;;;;;6.44;100.00;99047.84;5089767;28;20237;-77
2023/04/20 05:31:56;;;;;;;10.33;6.97;;;;;;;6.74;100.00;99045.47;5091859;28;20250;-77
2023/04/20 05:34:25;;;;;;;7.00;6.30;;;;;;;6.47;100.00;99051.19;5095440;28;20206;-77
2023/04/20 05:36:53;;;;;;;6.90;6.20;;;;;;;6.54;100.00;99049.94;5090675;28;20196;-78
2023/04/20 05:39:22;;;;;;;8.17;6.40;;;;;;;6.65;100.00;99057.31;5090970;28;20230;-77
2023/04/20 05:41:50;;;;;;;7.53;6.77;;;;;;;6.46;100.00;99054.72;5086315;28;20378;-77
2023/04/20 05:44:20;;;;;;;6.17;5.57;;;;;;;6.42;100.00;99054.97;5094437;28;20268;-77
2023/04/20 05:46:49;;;;;;;6.77;5.93;;;;;;;6.36;100.00;99056.09;5090785;28;20196;-78
2023/04/20 05:49:17;;;;;;;6.43;5.73;;;;;;;6.10;100.00;99052.13;5094116;28;20241;-77
2023/04/20 05:51:45;;;;;;;9.90;7.70;;;;;;;6.38;100.00;99056.91;5089722;28;20200;-78
2023/04/20 05:54:13;;;;;;;6.77;5.67;;;;;;;6.44;100.00;99048.69;5086326;28;20199;-78
2023/04/20 05:56:43;;;;;;;8.17;6.00;;;;;;;6.18;100.00;99052.59;5088217;28;20191;-77
2023/04/20 05:59:11;;;;;;;7.30;5.87;;;;;;;6.30;100.00;99056.44;5094093;28;20312;-77
2023/04/20 06:01:41;;;;;;;6.73;5.63;;;;;;;6.48;100.00;99057.31;5090023;28;20207;-77
2023/04/20 06:04:09;;;;;;;6.90;6.20;;;;;;;6.64;100.00;99049.50;5088325;28;20318;-77
2023/04/20 06:06:38;;;;;;;5.83;5.23;;;;;;;6.58;100.00;99053.31;5087247;28;20199;-78
2023/04/20 06:09:06;;;;;;;5.60;5.00;;;;;;;6.55;100.00;99054.28;5091271;28;20219;-77
2023/04/20 06:11:34;;;;;;;6.77;5.47;;;;;;;6.27;100.00;99049.53;5083799;28;20697;-77
2023/04/20 06:14:03;;;;;;;7.13;5.63;;;;;;;6.30;100.00;99048.53;5093869;28;20202;-78
2023/04/20 06:16:31;;;;;;;6.20;4.70;;;;;;;6.38;100.00;99050.78;5089851;28;20711;-77
2023/04/20 06:19:01;;;;;;;6.63;5.53;;;;;;;6.31;100.00;99058.13;5093693;28;20199;-78
2023/04/20 06:21:30;;;;;;;7.00;5.80;;;;;;;6.50;100.00;99051.03;5089050;28;20195;-78
2023/04/20 06:23:58;;;;;;;5.97;4.87;;;;;;;6.46;100.00;99057.34;5089082;28;20200;-78
2023/04/20 06:26:26;;;;;;;5.50;4.90;;;;;;;6.72;100.00;99058.72;5092380;28;20200;-77
2023/04/20 06:28:55;;;;;;;5.73;5.17;;;;;;;6.82;100.00;99059.09;5088061;28;20298;-78
2023/04/20 06:31:23;;;;;;;5.83;5.07;;;;;;;6.83;100.00;99053.75;5093423;28;20241;-77
2023/04/20 06:33:51;;;;;;;5.00;4.30;;;;;;;6.54;100.00;99051.72;5093503;28;20205;-77
2023/04/20 06:36:20;;;;;;;4.47;4.07;;;;;;;6.83;100.00;99053.75;5085909;28;20199;-77
2023/04/20 06:38:49;;;;;;;5.13;4.63;;;;;;;6.55;100.00;99058.69;5092579;28;20305;-77
2023/04/20 06:41:17;;;;;;;4.73;4.33;;;;;;;6.78;100.00;99050.53;5085816;28;20195;-77
2023/04/20 06:43:45;;;;;;;5.23;4.73;;;;;;;6.44;100.00;99058.38;5086252;28;20248;-77
2023/04/20 06:46:13;;;;;;;4.63;4.13;;;;;;;6.59;100.00;99062.91;5089395;28;20195;-77
2023/04/20 06:48:41;;;;;;;5.40;4.90;;;;;;;6.44;100.00;99058.38;5084237;28;20302;-77
2023/04/20 06:51:09;;;;;;;5.10;4.60;;;;;;;6.25;100.00;99058.41;5088985;28;20597;-77
2023/04/20 06:53:39;;;;;;;4.83;4.33;;;;;;;6.25;100.00;99061.03;5093327;28;20199;-77
2023/04/20 06:56:10;;;;;;;4.80;3.90;;;;;;;6.19;100.00;99066.59;5083561;28;20199;-77
2023/04/20 06:58:38;;;;;;;4.40;3.73;;;;;;;6.23;100.00;99069.00;5088530;28;20301;-77
2023/04/20 07:01:06;;;;;;;4.43;3.83;;;;;;;6.10;100.00;99067.03;5088181;28;20222;-77
2023/04/20 07:03:35;;;;;;;3.70;3.40;;;;;;;6.27;100.00;99067.94;5089951;28;20199;-77
2023/04/20 07:06:03;;;;;;;3.33;3.00;;;;;;;6.26;100.00;99071.47;5093241;28;20196;-77
2023/04/20 07:08:31;;;;;;;3.53;3.23;;;;;;;6.18;100.00;99068.38;5089494;28;20237;-77
2023/04/20 07:11:01;;;;;;;3.53;3.20;;;;;;;6.27;100.00;99065.31;5094262;28;20241;-77
2023/04/20 07:13:31;;;;;;;4.57;3.70;;;;;;;6.28;100.00;99066.16;5095549;28;20237;-77
2023/04/20 07:16:01;;;;;;;4.13;3.70;;;;;;;6.48;100.00;99066.06;5090810;28;20192;-77
2023/04/20 07:18:30;;;;;;;3.77;3.43;;;;;;;6.37;100.00;99060.47;5093183;28;20206;-77
2023/04/20 07:21:01;;;;;;;3.67;3.17;;;;;;;6.55;100.00;99058.69;5090995;28;20226;-77
2023/04/20 07:23:30;;;;;;;4.47;3.30;;;;;;;6.55;100.00;99067.44;5091097;28;20249;-77
2023/04/20 07:25:58;;;;;;;3.60;3.17;;;;;;;6.62;100.00;99051.34;5092812;28;20655;-77
2023/04/20 07:28:28;;;;;;;4.63;3.97;;;;;;;6.69;100.00;99058.03;5091443;28;20215;-77
2023/04/20 07:30:56;;;;;;;5.90;4.53;;;;;;;6.68;100.00;99054.53;5093403;28;20195;-77
2023/04/20 07:33:24;;;;;;;4.70;4.00;;;;;;;6.80;100.00;99053.94;5089348;28;20267;-77
2023/04/20 07:35:52;;;;;;;3.67;3.30;;;;;;;6.71;100.00;99054.38;5088924;28;20203;-78
2023/04/20 07:38:20;;;;;;;3.80;3.33;;;;;;;6.79;100.00;99048.75;5087335;28;20203;-77
2023/04/20 07:40:48;;;;;;;5.17;3.80;;;;;;;7.02;100.00;99055.47;5087475;28;20200;-77
2023/04/20 07:43:16;;;;;;;5.37;3.93;;;;;;;7.14;100.00;99057.47;5093593;28;20244;-77
2023/04/20 07:45:47;;;;;;;4.37;3.97;;;;;;;7.27;100.00;99055.91;5087335;28;20196;-77
2023/04/20 07:48:15;;;;;;;4.00;3.60;;;;;;;7.15;100.00;99056.56;5091304;28;20238;-76
2023/04/20 07:50:43;;;;;;;5.90;3.40;;;;;;;7.26;100.00;99061.25;5093166;28;20324;-77
2023/04/20 07:53:13;;;;;;;4.30;3.90;;;;;;;7.39;100.00;99059.69;5089563;28;20290;-77
2023/04/20 07:55:41;;;;;;;4.60;4.20;;;;;;;7.72;100.00;99057.00;5089883;28;20249;-77
2023/04/20 07:58:10;;;;;;;3.70;3.40;;;;;;;7.63;100.00;99058.38;5090460;28;20199;-77
2023/04/20 08:00:39;;;;;;;3.90;3.50;;;;;;;7.64;100.00;99061.88;5094324;28;20222;-77
2023/04/20 08:03:09;;;;;;;4.03;3.67;;;;;;;7.56;100.00;99064.91;5089838;28;20200;-77
2023/04/20 08:05:39;;;;;;;4.87;4.37;;;;;;;7.55;100.00;99057.09;5091339;28;20310;-77
2023/04/20 08:08:07;;;;;;;5.87;5.00;;;;;;;7.64;100.00;99065.38;5096726;28;20200;-77
2023/04/20 08:10:36;;;;;;;4.87;3.90;;;;;;;7.43;100.00;99071.75;5096452;28;20241;-78
2023/04/20 08:13:04;;;;;;;5.07;4.23;;;;;;;7.72;100.00;99071.06;5091533;28;20184;-77
2023/04/20 08:15:32;;;;;;;4.10;3.73;;;;;;;7.42;100.00;99070.03;5095990;28;20195;-77
2023/04/20 08:18:00;;;;;;;5.17;4.63;;;;;;;7.58;100.00;99076.22;5096298;28;20248;-77
2023/04/20 08:20:30;;;;;;;7.27;4.90;;;;;;;7.34;100.00;99075.75;5093539;28;20255;-77
2023/04/20 08:23:04;;;;;;;5.27;4.77;;;;;;;7.81;100.00;99074.13;5093946;28;20191;-77
2023/04/20 08:25:32;;;;;;;13.47;8.77;;;;;;;7.84;100.00;99074.84;5094858;28;20207;-77
2023/04/20 08:28:00;;;;;;;13.53;9.27;;;;;;;7.78;100.00;99071.66;5093106;28;20245;-78
2023/04/20 08:30:30;;;;;;;6.50;5.67;;;;;;;7.92;100.00;99062.09;5092857;28;20215;-77
2023/04/20 08:32:58;;;;;;;5.63;5.13;;;;;;;7.93;100.00;99063.78;5085925;28;20199;-77
2023/04/20 08:35:26;;;;;;;6.23;5.60;;;;;;;7.74;100.00;99063.09;5085684;28;20234;-77
2023/04/20 08:37:56;;;;;;;6.33;5.53;;;;;;;7.83;100.00;99059.09;5091198;28;20234;-77
2023/04/20 08:40:25;;;;;;;6.23;5.50;;;;;;;7.80;100.00;99065.38;5087927;28;20218;-77
2023/04/20 08:42:53;;;;;;;9.80;8.70;;;;;;;8.01;100.00;99060.72;5095860;28;20359;-77
2023/04/20 08:45:21;;;;;;;8.23;7.03;;;;;;;8.13;100.00;99065.31;5092879;28;20192;-77
2023/04/20 08:47:50;;;;;;;8.20;5.87;;;;;;;8.07;100.00;99062.16;5087690;28;20208;-77
2023/04/20 08:50:21;;;;;;;8.80;7.90;;;;;;;8.25;100.00;99064.63;5092740;28;20251;-78
2023/04/20 08:52:49;;;;;;;6.93;5.60;;;;;;;8.03;100.00;99064.13;5090368;28;20249;-77
2023/04/20 08:55:19;;;;;;;7.53;5.83;;;;;;;8.16;100.00;99066.94;5090947;28;20723;-77
2023/04/20 08:57:48;;;;;;;6.10;5.47;;;;;;;8.15;100.00;99067.88;5052878;28;20189;-77
2023/04/20 09:00:17;;;;;;;6.50;5.30;;;;;;;8.23;100.00;99061.22;5051711;28;20201;-77
2023/04/20 09:02:49;;;;;;;8.00;5.90;;;;;;;8.08;100.00;99061.22;5050616;28;20201;-77
2023/04/20 09:05:26;;;;;;;7.10;5.60;;;;;;;8.13;100.00;99067.09;5050252;28;20707;-77
2023/04/20 09:07:56;;;;;;;6.67;5.37;;;;;;;8.21;100.00;99065.75;5050377;28;20196;-78
2023/04/20 09:10:27;;;;;;;8.67;5.90;;;;;;;8.12;100.00;99073.31;5052237;28;20212;-78
2023/04/20 09:12:56;;;;;;;8.20;6.80;;;;;;;8.11;100.00;99067.19;5053572;28;20193;-78
2023/04/20 09:15:25;;;;;;;9.97;8.40;;;;;;;8.37;100.00;99071.03;5064356;28;20249;-78
2023/04/20 09:17:53;;;;;;;11.70;6.30;;;;;;;8.25;100.00;99059.34;5096001;28;20195;-78
2023/04/20 09:20:30;;;;;;;8.27;6.50;;;;;;;8.12;100.00;99065.41;5093270;28;20195;-77
2023/04/20 09:23:11;;;;;;;7.27;6.10;;;;;;;8.40;100.00;99060.31;5092378;28;20196;-78
2023/04/20 09:25:42;;;;;;;8.53;6.30;;;;;;;8.64;100.00;99057.22;5090713;28;20203;-77
2023/04/20 09:28:10;;;;;;;8.87;6.13;;;;;;;8.98;100.00;99045.53;5091678;28;20191;-77
2023/04/20 09:30:40;;;;;;;8.17;6.30;;;;;;;9.24;100.00;99047.44;5090505;28;20686;-78
2023/04/20 09:33:10;;;;;;;7.40;6.37;;;;;;;9.68;100.00;99041.25;5092766;28;20196;-77
2023/04/20 09:35:40;;;;;;;9.37;7.03;;;;;;;10.01;100.00;99040.91;5091616;28;20196;-77
2023/04/20 09:38:09;;;;;;;10.03;6.93;;;;;;;10.19;100.00;99037.09;5094585;28;20195;-77
2023/04/20 09:40:38;;;;;;;9.10;6.77;;;;;;;10.46;100.00;99031.84;5093471;28;20196;-78
2023/04/20 09:43:12;;;;;;;8.50;6.83;;;;;;;10.38;100.00;99030.63;5094530;28;20233;-77
2023/04/20 09:45:43;;;;;;;7.43;6.30;;;;;;;10.32;100.00;99035.38;5088334;28;20277;-77
2023/04/20 09:48:17;;;;;;;7.47;6.67;;;;;;;9.89;100.00;99031.09;5088131;28;20219;-77
2023/04/20 09:50:46;;;;;;;8.10;7.10;;;;;;;9.98;100.00;99025.25;5088947;28;20261;-77
2023/04/20 09:53:19;;;;;;;8.20;7.40;;;;;;;9.86;100.00;99028.66;5094336;28;20589;-77
2023/04/20 09:55:48;;;;;;;10.17;7.77;;;;;;;10.26;100.00;99019.91;5093137;28;20192;-79
2023/04/20 09:58:20;;;;;;;7.93;6.67;;;;;;;10.37;100.00;99008.59;5090573;28;20198;-78
2023/04/20 10:00:49;;;;;;;10.17;7.13;;;;;;;10.16;100.00;99016.13;5087713;28;20661;-78
2023/04/20 10:03:18;;;;;;;7.93;6.43;;;;;;;10.74;100.00;99012.31;5094184;28;20203;-78
2023/04/20 10:05:46;;;;;;;10.67;6.67;;;;;;;11.17;100.00;99022.66;5089424;28;20203;-78
2023/04/20 10:08:14;;;;;;;6.30;5.70;;;;;;;11.12;100.00;99011.53;5090191;28;20188;-78
2023/04/20 10:10:45;;;;;;;7.13;6.43;;;;;;;11.33;100.00;99003.88;5086121;28;20682;-78
2023/04/20 10:13:13;;;;;;;7.70;6.37;;;;;;;11.09;100.00;98999.31;5084266;28;20196;-78
2023/04/20 10:15:43;;;;;;;9.60;7.90;;;;;;;10.59;100.00;99008.03;5087315;28;20226;-78
2023/04/20 10:18:18;;;;;;;7.50;6.63;;;;;;;10.72;100.00;99010.72;5093876;28;20200;-78
2023/04/20 10:20:47;;;;;;;7.53;6.73;;;;;;;10.53;100.00;99003.16;5086933;28;20203;-78
2023/04/20 10:23:17;;;;;;;7.10;6.40;;;;;;;10.54;100.00;99004.84;5094031;28;20238;-78
2023/04/20 10:25:55;;;;;;;8.70;6.50;;;;;;;10.43;100.00;99002.91;5089362;28;20221;-78
2023/04/20 10:28:25;;;;;;;8.33;6.43;;;;;;;10.48;100.00;99007.91;5093910;28;20279;-78
2023/04/20 10:30:55;;;;;;;29.27;26.60;;;;;;;10.63;100.00;98998.94;5093609;28;20315;-78
2023/04/20 10:33:23;;;;;;;54.63;41.27;;;;;;;10.68;100.00;98994.19;5081808;28;20758;-78
2023/04/20 10:35:53;;;;;;;50.67;34.53;;;;;;;10.64;100.00;98995.34;5086492;28;20275;-78
2023/04/20 10:38:32;;;;;;;15.57;11.80;;;;;;;10.99;100.00;98986.78;5094995;28;20192;-78
2023/04/20 10:41:07;;;;;;;7.13;6.03;;;;;;;11.10;100.00;98989.59;5093156;28;20643;-78
2023/04/20 10:43:37;;;;;;;8.77;7.90;;;;;;;11.10;100.00;98984.28;5094756;28;20209;-78
2023/04/20 10:46:15;;;;;;;7.63;6.30;;;;;;;11.25;100.00;98983.19;5091253;28;20627;-78
2023/04/20 10:48:54;;;;;;;7.30;6.10;;;;;;;11.10;100.00;98982.47;5088692;28;20199;-77
2023/04/20 10:51:23;;;;;;;7.37;5.80;;;;;;;11.16;100.00;98979.38;5093729;28;20215;-78
2023/04/20 10:54:03;;;;;;;5.80;5.30;;;;;;;11.00;100.00;98978.75;5094094;28;20200;-78
2023/04/20 10:56:42;;;;;;;10.67;4.90;;;;;;;10.57;100.00;98970.22;5093616;28;20214;-78
2023/04/20 10:59:14;;;;;;;6.37;5.20;;;;;;;10.80;100.00;98969.50;5093567;28;20203;-78
2023/04/20 11:01:46;;;;;;;6.13;5.53;;;;;;;10.72;100.00;98971.00;5090441;28;20224;-78
2023/04/20 11:04:15;;;;;;;6.00;5.40;;;;;;;10.98;100.00;98962.09;5094280;28;20231;-78
2023/04/20 11:06:47;;;;;;;6.33;5.13;;;;;;;11.10;100.00;98957.78;5094473;28;20200;-78
2023/04/20 11:09:19;;;;;;;5.30;4.80;;;;;;;10.91;100.00;98952.06;5095465;28;20202;-77
2023/04/20 11:11:59;;;;;;;5.47;4.77;;;;;;;10.90;100.00;98953.81;5087800;28;20241;-78
2023/04/20 11:14:28;;;;;;;6.33;4.60;;;;;;;10.99;100.00;98941.75;5087757;28;20226;-78
2023/04/20 11:16:58;;;;;;;4.80;4.27;;;;;;;10.91;100.00;98938.81;5093403;28;20226;-78
2023/04/20 11:19:28;;;;;;;5.07;4.57;;;;;;;11.07;100.00;98945.56;5089944;28;20191;-78
2023/04/20 11:22:01;;;;;;;7.13;5.07;;;;;;;10.85;100.00;98929.47;5088753;28;20647;-77
2023/04/20 11:24:31;;;;;;;5.53;4.93;;;;;;;10.70;100.00;98944.59;5092896;28;20248;-77
2023/04/20 11:27:03;;;;;;;5.33;4.30;;;;;;;10.67;100.00;98934.22;5086841;28;20200;-78
2023/04/20 11:29:33;;;;;;;5.37;4.40;;;;;;;10.58;100.00;98934.84;5090539;28;20200;-77
2023/04/20 11:32:05;;;;;;;6.00;4.07;;;;;;;10.94;100.00;98938.56;5084655;28;20219;-78
2023/04/20 11:34:34;;;;;;;5.40;4.83;;;;;;;11.14;100.00;98930.94;5092903;28;20202;-78
2023/04/20 11:37:08;;;;;;;5.30;4.80;;;;;;;11.47;100.00;98927.69;5089958;28;20280;-78
2023/04/20 11:39:37;;;;;;;4.63;4.13;;;;;;;12.05;100.00;98914.69;5093010;28;20274;-78
2023/04/20 11:42:06;;;;;;;5.30;4.40;;;;;;;11.97;100.00;98917.94;5088527;28;20250;-78